ADDS METAR Data INFO
IDs: Format: Raw Decoded Include TAF

Data at: 0220 UTC 14 Dec 2017

KOJA 140155Z AUTO 00000KT 10SM CLR 06/M05 A2994 RMK AO2
KOJA 140135Z AUTO 00000KT 10SM CLR 07/M05 A2994 RMK AO2
KOJA 140115Z AUTO 00000KT 10SM CLR 07/M05 A2993 RMK AO2
KOJA 140055Z AUTO 00000KT 10SM CLR 08/M05 A2993 RMK AO2
KOJA 140035Z AUTO 31003KT 10SM CLR 09/M05 A2992 RMK AO2
KOJA 140015Z AUTO 00000KT 10SM CLR 10/M05 A2993 RMK AO2
KOJA 132355Z AUTO 00000KT 10SM CLR 12/M05 A2992 RMK AO2
KOJA 132335Z AUTO 00000KT 10SM CLR 13/M05 A2992 RMK AO2
KOJA 132315Z AUTO 02003KT 10SM CLR 14/M05 A2992 RMK AO2
KOJA 132255Z AUTO 02004KT 10SM CLR 15/M05 A2992 RMK AO2
KOJA 132235Z AUTO 02006KT 10SM CLR 16/M05 A2992 RMK AO2
KOJA 132215Z AUTO 02007KT 10SM CLR 17/M06 A2992 RMK AO2
KOJA 132155Z AUTO 01009KT 10SM CLR 18/M06 A2992 RMK AO2
KOJA 132135Z AUTO 02010KT 10SM CLR 18/M06 A2992 RMK AO2
KOJA 132115Z AUTO 36010KT 10SM CLR 19/M06 A2991 RMK AO2
KOJA 132055Z AUTO 03011KT 10SM CLR 18/M05 A2992 RMK AO2
KOJA 132035Z AUTO 02011KT 10SM CLR 18/M05 A2992 RMK AO2
KOJA 132015Z AUTO 03012G17KT 10SM CLR 18/M05 A2992 RMK AO2
KOJA 131955Z AUTO 01014G17KT 10SM CLR 18/M05 A2993 RMK AO2
KOJA 131935Z AUTO 04013G20KT 10SM CLR 18/M05 A2994 RMK AO2
KOJA 131915Z AUTO 03016G20KT 10SM CLR 18/M05 A2994 RMK AO2
KOJA 131855Z AUTO 04017G22KT 10SM CLR 18/M05 A2995 RMK AO2
KOJA 131835Z AUTO 03013G20KT 10SM CLR 18/M05 A2996 RMK AO2
KOJA 131815Z AUTO 02013G17KT 10SM CLR 18/M05 A2997 RMK AO2
KOJA 131755Z AUTO 02019G22KT 10SM CLR 18/M03 A2997 RMK AO2
KOJA 131735Z AUTO 03017G20KT 10SM CLR 17/M04 A2997 RMK AO2
KOJA 131715Z AUTO 02016G20KT 10SM CLR 16/M05 A2999 RMK AO2
KOJA 131655Z AUTO 02013KT 10SM CLR 15/M05 A2999 RMK AO2
KOJA 131635Z AUTO 01010KT 10SM CLR 14/M05 A2999 RMK AO2
KOJA 131615Z AUTO 35008KT 10SM CLR 12/M05 A2999 RMK AO2
KOJA 131555Z AUTO 35010G14KT 10SM CLR 11/M06 A2998 RMK AO2
KOJA 131535Z AUTO 32007KT 10SM CLR 10/M06 A2998 RMK AO2
KOJA 131515Z AUTO 30004KT 10SM CLR 08/M06 A2997 RMK AO2
KOJA 131455Z AUTO 26005KT 10SM CLR 06/M06 A2997 RMK AO2
KOJA 131435Z AUTO 25005KT 10SM CLR 05/M07 A2996 RMK AO2
KOJA 131415Z AUTO 25009KT 10SM CLR 04/M07 A2996 RMK AO2
KOJA 131355Z AUTO 23005KT 10SM CLR 03/M07 A2994 RMK AO2
KOJA 131335Z AUTO 22003KT 10SM CLR 03/M07 A2994 RMK AO2
KOJA 131315Z AUTO 00000KT 10SM CLR 02/M07 A2993 RMK AO2
KOJA 131255Z AUTO 20004KT 10SM CLR 02/M07 A2992 RMK AO2
KOJA 131235Z AUTO 17003KT 10SM CLR 02/M07 A2992 RMK AO2
KOJA 131215Z AUTO 19004KT 10SM CLR 02/M07 A2992 RMK AO2
KOJA 131155Z AUTO 00000KT 10SM CLR 04/M07 A2992 RMK AO2
KOJA 131135Z AUTO 22003KT 10SM CLR 05/M07 A2992 RMK AO2
KOJA 131115Z AUTO 23005KT 10SM CLR 05/M07 A2992 RMK AO2
KOJA 131055Z AUTO 24005KT 10SM CLR 06/M07 A2993 RMK AO2
KOJA 131035Z AUTO 25005KT 10SM CLR 06/M07 A2994 RMK AO2
KOJA 131015Z AUTO 24005KT 10SM CLR 05/M07 A2995 RMK AO2
KOJA 130955Z AUTO 24004KT 10SM CLR 05/M06 A2996 RMK AO2
KOJA 130935Z AUTO 25004KT 10SM CLR 05/M06 A2996 RMK AO2
KOJA 130915Z AUTO 22006KT 10SM CLR 05/M06 A2997 RMK AO2
KOJA 130855Z AUTO 22005KT 10SM CLR 05/M06 A2997 RMK AO2
KOJA 130835Z AUTO 23005KT 10SM CLR 05/M06 A2997 RMK AO2
KOJA 130815Z AUTO 23006KT 10SM CLR 05/M06 A2998 RMK AO2
KOJA 130755Z AUTO 23007KT 10SM CLR 05/M05 A2998 RMK AO2
KOJA 130735Z AUTO 22005KT 10SM CLR 04/M05 A2999 RMK AO2
KOJA 130715Z AUTO 21005KT 10SM CLR 05/M05 A3001 RMK AO2
KOJA 130655Z AUTO 20004KT 10SM CLR 05/M04 A3002 RMK AO2
KOJA 130635Z AUTO 21004KT 10SM CLR 06/M04 A3003 RMK AO2
KOJA 130615Z AUTO 22006KT 10SM CLR 06/M04 A3003 RMK AO2
KOJA 130555Z AUTO 22008KT 10SM CLR 05/M03 A3004 RMK AO2
KOJA 130535Z AUTO 22007KT 10SM CLR 05/M03 A3005 RMK AO2
KOJA 130515Z AUTO 21007KT 10SM CLR 06/M03 A3006 RMK AO2
KOJA 130455Z AUTO 22010G16KT 10SM CLR 06/M03 A3007 RMK AO2
KOJA 130435Z AUTO 21010KT 10SM CLR 06/M03 A3008 RMK AO2
KOJA 130415Z AUTO 22010G16KT 10SM CLR 06/M03 A3009 RMK AO2
KOJA 130355Z AUTO 22012G16KT 10SM CLR 06/M03 A3010 RMK AO2
KOJA 130335Z AUTO 21011G17KT 10SM CLR 07/M03 A3011 RMK AO2
KOJA 130315Z AUTO 22010KT 10SM CLR 06/M03 A3012 RMK AO2
KOJA 130255Z AUTO 21007KT 10SM CLR 06/M03 A3013 RMK AO2
KOJA 130235Z AUTO 20006KT 10SM CLR 06/M03 A3014 RMK AO2
KOJA 130215Z AUTO 20006KT 10SM CLR 06/M03 A3015 RMK AO2
KOJA 130155Z AUTO 20006KT 10SM CLR 06/M02 A3017 RMK AO2
KOJA 130140Z AUTO 20006KT 10SM CLR 07/M02 A3017 RMK AO2
KOJA 130115Z AUTO 21008KT 10SM CLR 07/M02 A3018 RMK AO2
KOJA 130055Z AUTO 21006KT 10SM CLR 07/M02 A3018 RMK AO2
KOJA 130035Z AUTO 21006KT 10SM CLR 07/M02 A3019 RMK AO2
KOJA 130015Z AUTO 20005KT 10SM CLR 08/M02 A3019 RMK AO2
KOJA 122355Z AUTO 20004KT 10SM CLR 08/M02 A3020 RMK AO2
KOJA 122335Z AUTO 20005KT 10SM CLR 10/M02 A3021 RMK AO2
KOJA 122315Z AUTO 19005KT 10SM CLR 10/M02 A3022 RMK AO2
KOJA 122255Z AUTO 19004KT 10SM CLR 11/M02 A3023 RMK AO2
KOJA 122235Z AUTO 21004KT 10SM CLR 12/M02 A3024 RMK AO2
KOJA 122215Z AUTO 22004KT 10SM CLR 12/M02 A3024 RMK AO2
KOJA 122155Z AUTO 26006KT 10SM CLR 12/M03 A3025 RMK AO2
KOJA 122135Z AUTO 26007KT 10SM CLR 12/M03 A3026 RMK AO2
KOJA 122115Z AUTO 25008KT 10SM CLR 11/M02 A3027 RMK AO2
KOJA 122055Z AUTO 26005KT 10SM CLR 11/M02 A3028 RMK AO2
KOJA 122035Z AUTO 27006KT 10SM CLR 11/M02 A3029 RMK AO2
KOJA 122015Z AUTO 29007KT 10SM CLR 11/M01 A3030 RMK AO2
KOJA 121955Z AUTO 24004KT 10SM CLR 11/M01 A3032 RMK AO2
KOJA 121935Z AUTO 27008KT 10SM CLR 11/M01 A3033 RMK AO2
KOJA 121915Z AUTO 25004KT 10SM CLR 10/M01 A3035 RMK AO2
KOJA 121855Z AUTO 33004KT 10SM CLR 10/M01 A3036 RMK AO2
KOJA 121835Z AUTO 34005KT 10SM CLR 09/M01 A3038 RMK AO2
KOJA 121815Z AUTO 35004KT 10SM CLR 08/M01 A3040 RMK AO2
KOJA 121755Z AUTO 30005KT 10SM CLR 08/M01 A3042 RMK AO2
KOJA 121735Z AUTO 01005KT 10SM CLR 07/M01 A3043 RMK AO2
KOJA 121715Z AUTO 34005KT 10SM CLR 07/M01 A3043 RMK AO2
KOJA 121655Z AUTO 34007KT 10SM CLR 06/M01 A3044 RMK AO2
KOJA 121635Z AUTO 36005KT 10SM CLR 06/M01 A3044 RMK AO2
KOJA 121615Z AUTO 35006KT 10SM CLR 05/M01 A3045 RMK AO2
KOJA 121555Z AUTO 35006KT 10SM CLR 04/M01 A3045 RMK AO2
KOJA 121535Z AUTO 34006KT 10SM CLR 03/M01 A3045 RMK AO2
KOJA 121515Z AUTO 34006KT 10SM CLR 03/M01 A3045 RMK AO2
KOJA 121455Z AUTO 33006KT 10SM CLR 02/M02 A3045 RMK AO2
KOJA 121435Z AUTO 32005KT 10SM CLR 01/M02 A3045 RMK AO2